sensor_id;sensor_type;location;lat;lon;timestamp;temperature;humidity
27858;DHT22;16852;51.446;6.528;2023-11-19T00:01:37;12.40;99.90
27858;DHT22;16852;51.446;6.528;2023-11-19T00:03:38;12.40;99.90
27858;DHT22;16852;51.446;6.528;2023-11-19T00:05:39;12.50;99.90
27858;DHT22;16852;51.446;6.528;2023-11-19T00:07:40;12.50;99.90
27858;DHT22;16852;51.446;6.528;2023-11-19T00:09:44;12.50;99.90
27858;DHT22;16852;51.446;6.528;2023-11-19T00:11:45;12.50;99.90
27858;DHT22;16852;51.446;6.528;2023-11-19T00:13:45;12.60;99.90
27858;DHT22;16852;51.446;6.528;2023-11-19T00:15:46;12.50;99.90
27858;DHT22;16852;51.446;6.528;2023-11-19T00:17:48;12.60;99.90
27858;DHT22;16852;51.446;6.528;2023-11-19T00:19:48;12.60;99.90
27858;DHT22;16852;51.446;6.528;2023-11-19T00:21:52;12.60;99.90
27858;DHT22;16852;51.446;6.528;2023-11-19T00:23:53;12.60;99.90
27858;DHT22;16852;51.446;6.528;2023-11-19T00:25:53;12.60;99.90
27858;DHT22;16852;51.446;6.528;2023-11-19T00:27:54;12.60;99.90
27858;DHT22;16852;51.446;6.528;2023-11-19T00:29:56;12.70;99.90
27858;DHT22;16852;51.446;6.528;2023-11-19T00:31:57;12.70;99.90
27858;DHT22;16852;51.446;6.528;2023-11-19T00:33:57;12.70;99.90
27858;DHT22;16852;51.446;6.528;2023-11-19T00:35:58;12.70;99.90
27858;DHT22;16852;51.446;6.528;2023-11-19T00:37:59;12.70;99.90
27858;DHT22;16852;51.446;6.528;2023-11-19T00:40:01;12.70;99.90
27858;DHT22;16852;51.446;6.528;2023-11-19T00:42:01;12.80;99.90
27858;DHT22;16852;51.446;6.528;2023-11-19T00:44:02;12.80;99.90
27858;DHT22;16852;51.446;6.528;2023-11-19T00:46:03;12.80;99.90
27858;DHT22;16852;51.446;6.528;2023-11-19T00:48:05;12.80;99.90
27858;DHT22;16852;51.446;6.528;2023-11-19T00:50:06;12.80;99.90
27858;DHT22;16852;51.446;6.528;2023-11-19T00:52:09;12.80;99.90
27858;DHT22;16852;51.446;6.528;2023-11-19T00:54:10;12.80;99.90
27858;DHT22;16852;51.446;6.528;2023-11-19T00:56:11;12.80;99.90
27858;DHT22;16852;51.446;6.528;2023-11-19T00:58:12;12.80;99.90
27858;DHT22;16852;51.446;6.528;2023-11-19T01:00:13;12.80;99.90
27858;DHT22;16852;51.446;6.528;2023-11-19T01:02:20;12.80;99.90
27858;DHT22;16852;51.446;6.528;2023-11-19T01:04:21;12.90;99.90
27858;DHT22;16852;51.446;6.528;2023-11-19T01:06:28;12.90;99.90
27858;DHT22;16852;51.446;6.528;2023-11-19T01:08:29;12.90;99.90
27858;DHT22;16852;51.446;6.528;2023-11-19T01:10:30;12.90;99.90
27858;DHT22;16852;51.446;6.528;2023-11-19T01:12:31;12.90;99.90
27858;DHT22;16852;51.446;6.528;2023-11-19T01:14:31;12.90;99.90
27858;DHT22;16852;51.446;6.528;2023-11-19T01:16:32;12.90;99.90
27858;DHT22;16852;51.446;6.528;2023-11-19T01:18:33;12.90;99.90
27858;DHT22;16852;51.446;6.528;2023-11-19T01:20:33;12.90;99.90
27858;DHT22;16852;51.446;6.528;2023-11-19T01:22:35;12.90;99.90
27858;DHT22;16852;51.446;6.528;2023-11-19T01:24:35;12.90;99.90
27858;DHT22;16852;51.446;6.528;2023-11-19T01:26:36;12.90;99.90
27858;DHT22;16852;51.446;6.528;2023-11-19T01:28:37;13.00;99.90
27858;DHT22;16852;51.446;6.528;2023-11-19T01:30:39;12.90;99.90
27858;DHT22;16852;51.446;6.528;2023-11-19T01:32:42;12.90;99.90
27858;DHT22;16852;51.446;6.528;2023-11-19T01:34:42;13.00;99.90
27858;DHT22;16852;51.446;6.528;2023-11-19T01:36:43;13.00;99.90
27858;DHT22;16852;51.446;6.528;2023-11-19T01:38:43;13.00;99.90
27858;DHT22;16852;51.446;6.528;2023-11-19T01:40:45;13.00;99.90
27858;DHT22;16852;51.446;6.528;2023-11-19T01:42:45;13.00;99.90
27858;DHT22;16852;51.446;6.528;2023-11-19T01:44:59;13.00;99.90
27858;DHT22;16852;51.446;6.528;2023-11-19T01:47:00;13.00;99.90
27858;DHT22;16852;51.446;6.528;2023-11-19T01:49:02;13.00;99.90
27858;DHT22;16852;51.446;6.528;2023-11-19T01:51:03;13.00;99.90
27858;DHT22;16852;51.446;6.528;2023-11-19T01:53:04;13.00;99.90
27858;DHT22;16852;51.446;6.528;2023-11-19T01:55:06;13.00;99.90
27858;DHT22;16852;51.446;6.528;2023-11-19T01:57:08;13.00;99.90
27858;DHT22;16852;51.446;6.528;2023-11-19T01:59:10;13.00;99.90
27858;DHT22;16852;51.446;6.528;2023-11-19T02:01:13;13.00;99.90
27858;DHT22;16852;51.446;6.528;2023-11-19T02:03:15;13.00;99.90
27858;DHT22;16852;51.446;6.528;2023-11-19T02:05:16;13.00;99.90
27858;DHT22;16852;51.446;6.528;2023-11-19T02:07:17;13.00;99.90
27858;DHT22;16852;51.446;6.528;2023-11-19T02:09:19;13.10;99.90
27858;DHT22;16852;51.446;6.528;2023-11-19T02:11:19;13.10;99.90
27858;DHT22;16852;51.446;6.528;2023-11-19T02:13:20;13.00;99.90
27858;DHT22;16852;51.446;6.528;2023-11-19T02:15:21;13.00;99.90
27858;DHT22;16852;51.446;6.528;2023-11-19T02:17:26;13.10;99.90
27858;DHT22;16852;51.446;6.528;2023-11-19T02:19:26;13.10;99.90
27858;DHT22;16852;51.446;6.528;2023-11-19T02:21:28;13.10;99.90
27858;DHT22;16852;51.446;6.528;2023-11-19T02:23:29;13.10;99.90
27858;DHT22;16852;51.446;6.528;2023-11-19T02:25:32;13.00;99.90
27858;DHT22;16852;51.446;6.528;2023-11-19T02:27:48;13.00;99.90
27858;DHT22;16852;51.446;6.528;2023-11-19T02:29:51;13.10;99.90
27858;DHT22;16852;51.446;6.528;2023-11-19T02:31:52;13.10;99.90
27858;DHT22;16852;51.446;6.528;2023-11-19T02:33:55;13.10;99.90
27858;DHT22;16852;51.446;6.528;2023-11-19T02:35:55;13.10;99.90
27858;DHT22;16852;51.446;6.528;2023-11-19T02:37:57;13.10;99.90
27858;DHT22;16852;51.446;6.528;2023-11-19T02:39:57;13.20;99.90
27858;DHT22;16852;51.446;6.528;2023-11-19T02:42:03;13.10;99.90
27858;DHT22;16852;51.446;6.528;2023-11-19T02:44:04;13.20;99.90
27858;DHT22;16852;51.446;6.528;2023-11-19T02:46:06;13.10;99.90
27858;DHT22;16852;51.446;6.528;2023-11-19T02:48:09;13.10;99.90
27858;DHT22;16852;51.446;6.528;2023-11-19T02:50:10;13.20;99.90
27858;DHT22;16852;51.446;6.528;2023-11-19T02:52:17;13.20;99.90
27858;DHT22;16852;51.446;6.528;2023-11-19T02:54:17;13.20;99.90
27858;DHT22;16852;51.446;6.528;2023-11-19T02:56:18;13.20;99.90
27858;DHT22;16852;51.446;6.528;2023-11-19T02:58:29;13.10;99.90
27858;DHT22;16852;51.446;6.528;2023-11-19T03:00:30;13.20;99.90
27858;DHT22;16852;51.446;6.528;2023-11-19T03:02:39;13.20;99.90
27858;DHT22;16852;51.446;6.528;2023-11-19T03:04:45;13.20;99.90
27858;DHT22;16852;51.446;6.528;2023-11-19T03:06:46;13.20;99.90
27858;DHT22;16852;51.446;6.528;2023-11-19T03:08:47;13.20;99.90
27858;DHT22;16852;51.446;6.528;2023-11-19T03:10:48;13.20;99.90
27858;DHT22;16852;51.446;6.528;2023-11-19T03:12:49;13.20;99.90
27858;DHT22;16852;51.446;6.528;2023-11-19T03:14:50;13.10;99.90
27858;DHT22;16852;51.446;6.528;2023-11-19T03:16:51;13.10;99.90
27858;DHT22;16852;51.446;6.528;2023-11-19T03:18:52;13.10;99.90
27858;DHT22;16852;51.446;6.528;2023-11-19T03:20:53;13.10;99.90
27858;DHT22;16852;51.446;6.528;2023-11-19T03:22:53;13.10;99.90
27858;DHT22;16852;51.446;6.528;2023-11-19T03:24:54;13.00;99.90
27858;DHT22;16852;51.446;6.528;2023-11-19T03:26:55;13.00;99.90
27858;DHT22;16852;51.446;6.528;2023-11-19T03:28:56;13.00;99.90
27858;DHT22;16852;51.446;6.528;2023-11-19T03:30:57;13.00;99.90
27858;DHT22;16852;51.446;6.528;2023-11-19T03:32:58;12.90;99.90
27858;DHT22;16852;51.446;6.528;2023-11-19T03:35:00;13.00;99.90
27858;DHT22;16852;51.446;6.528;2023-11-19T03:37:00;12.90;99.90
27858;DHT22;16852;51.446;6.528;2023-11-19T03:39:02;12.90;99.90
27858;DHT22;16852;51.446;6.528;2023-11-19T03:41:23;12.90;99.90
27858;DHT22;16852;51.446;6.528;2023-11-19T03:43:24;12.90;99.90
27858;DHT22;16852;51.446;6.528;2023-11-19T03:45:25;12.90;99.90
27858;DHT22;16852;51.446;6.528;2023-11-19T03:47:25;12.80;99.90
27858;DHT22;16852;51.446;6.528;2023-11-19T03:49:26;12.80;99.90
27858;DHT22;16852;51.446;6.528;2023-11-19T03:51:27;12.80;99.90
27858;DHT22;16852;51.446;6.528;2023-11-19T03:53:27;12.70;99.90
27858;DHT22;16852;51.446;6.528;2023-11-19T03:55:28;12.70;99.90
27858;DHT22;16852;51.446;6.528;2023-11-19T03:57:29;12.70;99.90
27858;DHT22;16852;51.446;6.528;2023-11-19T03:59:30;12.70;99.90
27858;DHT22;16852;51.446;6.528;2023-11-19T04:01:31;12.70;99.90
27858;DHT22;16852;51.446;6.528;2023-11-19T04:03:32;12.70;99.90
27858;DHT22;16852;51.446;6.528;2023-11-19T04:05:32;12.70;99.90
27858;DHT22;16852;51.446;6.528;2023-11-19T04:07:33;12.70;99.90
27858;DHT22;16852;51.446;6.528;2023-11-19T04:09:34;12.70;99.90
27858;DHT22;16852;51.446;6.528;2023-11-19T04:11:35;12.60;99.90
27858;DHT22;16852;51.446;6.528;2023-11-19T04:13:36;12.60;99.90
27858;DHT22;16852;51.446;6.528;2023-11-19T04:15:37;12.60;99.90
27858;DHT22;16852;51.446;6.528;2023-11-19T04:17:37;12.60;99.90
27858;DHT22;16852;51.446;6.528;2023-11-19T04:19:38;12.60;99.90
27858;DHT22;16852;51.446;6.528;2023-11-19T04:21:42;12.60;99.90
27858;DHT22;16852;51.446;6.528;2023-11-19T04:23:42;12.60;99.90
27858;DHT22;16852;51.446;6.528;2023-11-19T04:25:43;12.60;99.90
27858;DHT22;16852;51.446;6.528;2023-11-19T04:27:43;12.60;99.90
27858;DHT22;16852;51.446;6.528;2023-11-19T04:29:44;12.60;99.90
27858;DHT22;16852;51.446;6.528;2023-11-19T04:31:46;12.60;99.90
27858;DHT22;16852;51.446;6.528;2023-11-19T04:33:47;12.60;99.90
27858;DHT22;16852;51.446;6.528;2023-11-19T04:35:47;12.60;99.90
27858;DHT22;16852;51.446;6.528;2023-11-19T04:37:48;12.60;99.90
27858;DHT22;16852;51.446;6.528;2023-11-19T04:39:48;12.60;99.90
27858;DHT22;16852;51.446;6.528;2023-11-19T04:41:50;12.60;99.90
27858;DHT22;16852;51.446;6.528;2023-11-19T04:43:53;12.60;99.90
27858;DHT22;16852;51.446;6.528;2023-11-19T04:45:54;12.60;99.90
27858;DHT22;16852;51.446;6.528;2023-11-19T04:47:55;12.60;99.90
27858;DHT22;16852;51.446;6.528;2023-11-19T04:49:55;12.70;99.90
27858;DHT22;16852;51.446;6.528;2023-11-19T04:51:56;12.70;99.90
27858;DHT22;16852;51.446;6.528;2023-11-19T04:53:56;12.60;99.90
27858;DHT22;16852;51.446;6.528;2023-11-19T04:55:57;12.70;99.90
27858;DHT22;16852;51.446;6.528;2023-11-19T04:57:57;12.70;99.90
27858;DHT22;16852;51.446;6.528;2023-11-19T04:59:58;12.70;99.90
27858;DHT22;16852;51.446;6.528;2023-11-19T05:01:59;12.70;99.90
27858;DHT22;16852;51.446;6.528;2023-11-19T05:03:59;12.70;99.90
27858;DHT22;16852;51.446;6.528;2023-11-19T05:06:00;12.70;99.90
27858;DHT22;16852;51.446;6.528;2023-11-19T05:08:02;12.60;99.90
27858;DHT22;16852;51.446;6.528;2023-11-19T05:10:03;12.70;99.90
27858;DHT22;16852;51.446;6.528;2023-11-19T05:12:04;12.70;99.90
27858;DHT22;16852;51.446;6.528;2023-11-19T05:14:05;12.70;99.90
27858;DHT22;16852;51.446;6.528;2023-11-19T05:16:06;12.70;99.90
27858;DHT22;16852;51.446;6.528;2023-11-19T05:18:07;12.70;99.90
27858;DHT22;16852;51.446;6.528;2023-11-19T05:20:08;12.70;99.90
27858;DHT22;16852;51.446;6.528;2023-11-19T05:22:13;12.70;99.90
27858;DHT22;16852;51.446;6.528;2023-11-19T05:24:14;12.70;99.90
27858;DHT22;16852;51.446;6.528;2023-11-19T05:26:21;12.70;99.90
27858;DHT22;16852;51.446;6.528;2023-11-19T05:28:22;12.60;99.90
27858;DHT22;16852;51.446;6.528;2023-11-19T05:30:24;12.70;99.90
27858;DHT22;16852;51.446;6.528;2023-11-19T05:32:25;12.70;99.90
27858;DHT22;16852;51.446;6.528;2023-11-19T05:34:27;12.60;99.90
27858;DHT22;16852;51.446;6.528;2023-11-19T05:36:28;12.70;99.90
27858;DHT22;16852;51.446;6.528;2023-11-19T05:38:29;12.60;99.90
27858;DHT22;16852;51.446;6.528;2023-11-19T05:40:30;12.70;99.90
27858;DHT22;16852;51.446;6.528;2023-11-19T05:42:30;12.70;99.90
27858;DHT22;16852;51.446;6.528;2023-11-19T05:44:31;12.60;99.90
27858;DHT22;16852;51.446;6.528;2023-11-19T05:46:32;12.60;99.90
27858;DHT22;16852;51.446;6.528;2023-11-19T05:48:33;12.60;99.90
27858;DHT22;16852;51.446;6.528;2023-11-19T05:50:34;12.60;99.90
27858;DHT22;16852;51.446;6.528;2023-11-19T05:52:34;12.50;99.90
27858;DHT22;16852;51.446;6.528;2023-11-19T05:54:35;12.60;99.90
27858;DHT22;16852;51.446;6.528;2023-11-19T05:56:38;12.50;99.90
27858;DHT22;16852;51.446;6.528;2023-11-19T05:58:38;12.50;99.90
27858;DHT22;16852;51.446;6.528;2023-11-19T06:00:42;12.50;99.90
27858;DHT22;16852;51.446;6.528;2023-11-19T06:02:42;12.50;99.90
27858;DHT22;16852;51.446;6.528;2023-11-19T06:04:43;12.50;99.90
27858;DHT22;16852;51.446;6.528;2023-11-19T06:06:45;12.50;99.90
27858;DHT22;16852;51.446;6.528;2023-11-19T06:08:45;12.50;99.90
27858;DHT22;16852;51.446;6.528;2023-11-19T06:10:47;12.50;99.90
27858;DHT22;16852;51.446;6.528;2023-11-19T06:12:50;12.40;99.90
27858;DHT22;16852;51.446;6.528;2023-11-19T06:14:56;12.50;99.90
27858;DHT22;16852;51.446;6.528;2023-11-19T06:16:57;12.40;99.90
27858;DHT22;16852;51.446;6.528;2023-11-19T06:18:57;12.40;99.90
27858;DHT22;16852;51.446;6.528;2023-11-19T06:20:58;12.30;99.90
27858;DHT22;16852;51.446;6.528;2023-11-19T06:22:59;12.40;99.90
27858;DHT22;16852;51.446;6.528;2023-11-19T06:25:00;12.40;99.90
27858;DHT22;16852;51.446;6.528;2023-11-19T06:27:02;12.40;99.90
27858;DHT22;16852;51.446;6.528;2023-11-19T06:29:03;12.30;99.90
27858;DHT22;16852;51.446;6.528;2023-11-19T06:31:04;12.30;99.90
27858;DHT22;16852;51.446;6.528;2023-11-19T06:33:04;12.30;99.90
27858;DHT22;16852;51.446;6.528;2023-11-19T06:35:05;12.30;99.90
27858;DHT22;16852;51.446;6.528;2023-11-19T06:37:06;12.30;99.90
27858;DHT22;16852;51.446;6.528;2023-11-19T06:39:09;12.30;99.90
27858;DHT22;16852;51.446;6.528;2023-11-19T06:41:11;12.30;99.90
27858;DHT22;16852;51.446;6.528;2023-11-19T06:43:12;12.30;99.90
27858;DHT22;16852;51.446;6.528;2023-11-19T06:45:14;12.20;99.90
27858;DHT22;16852;51.446;6.528;2023-11-19T06:47:15;12.20;99.90
27858;DHT22;16852;51.446;6.528;2023-11-19T06:49:15;12.20;99.90
27858;DHT22;16852;51.446;6.528;2023-11-19T06:51:17;12.20;99.90
27858;DHT22;16852;51.446;6.528;2023-11-19T06:53:17;12.20;99.90
27858;DHT22;16852;51.446;6.528;2023-11-19T06:55:18;12.20;99.90
27858;DHT22;16852;51.446;6.528;2023-11-19T06:57:18;12.20;99.90
27858;DHT22;16852;51.446;6.528;2023-11-19T06:59:20;12.20;99.90
27858;DHT22;16852;51.446;6.528;2023-11-19T07:01:22;12.20;99.90
27858;DHT22;16852;51.446;6.528;2023-11-19T07:03:23;12.20;99.90
27858;DHT22;16852;51.446;6.528;2023-11-19T07:05:23;12.10;99.90
27858;DHT22;16852;51.446;6.528;2023-11-19T07:07:24;12.10;99.90
27858;DHT22;16852;51.446;6.528;2023-11-19T07:09:25;12.10;99.90
27858;DHT22;16852;51.446;6.528;2023-11-19T07:11:25;12.10;99.90
27858;DHT22;16852;51.446;6.528;2023-11-19T07:13:26;12.10;99.90
27858;DHT22;16852;51.446;6.528;2023-11-19T07:15:28;12.10;99.90
27858;DHT22;16852;51.446;6.528;2023-11-19T07:17:30;12.10;99.90
27858;DHT22;16852;51.446;6.528;2023-11-19T07:19:30;12.10;99.90
27858;DHT22;16852;51.446;6.528;2023-11-19T07:21:32;12.10;99.90
27858;DHT22;16852;51.446;6.528;2023-11-19T07:23:33;12.00;99.90
27858;DHT22;16852;51.446;6.528;2023-11-19T07:25:34;12.10;99.90
27858;DHT22;16852;51.446;6.528;2023-11-19T07:27:36;12.10;99.90
27858;DHT22;16852;51.446;6.528;2023-11-19T07:29:36;12.10;99.90
27858;DHT22;16852;51.446;6.528;2023-11-19T07:31:37;12.10;99.90
27858;DHT22;16852;51.446;6.528;2023-11-19T07:33:39;12.10;99.90
27858;DHT22;16852;51.446;6.528;2023-11-19T07:35:40;12.10;99.90
27858;DHT22;16852;51.446;6.528;2023-11-19T07:37:42;12.10;99.90
27858;DHT22;16852;51.446;6.528;2023-11-19T07:39:43;12.10;99.90
27858;DHT22;16852;51.446;6.528;2023-11-19T07:41:44;12.10;99.90
27858;DHT22;16852;51.446;6.528;2023-11-19T07:43:45;12.10;99.90
27858;DHT22;16852;51.446;6.528;2023-11-19T07:45:46;12.10;99.90
27858;DHT22;16852;51.446;6.528;2023-11-19T07:47:47;12.10;99.90
27858;DHT22;16852;51.446;6.528;2023-11-19T07:49:48;12.20;99.90
27858;DHT22;16852;51.446;6.528;2023-11-19T07:51:48;12.20;99.90
27858;DHT22;16852;51.446;6.528;2023-11-19T07:53:49;12.30;99.90
27858;DHT22;16852;51.446;6.528;2023-11-19T07:55:49;12.30;99.90
27858;DHT22;16852;51.446;6.528;2023-11-19T07:57:50;12.40;99.90
27858;DHT22;16852;51.446;6.528;2023-11-19T07:59:51;12.50;99.90
27858;DHT22;16852;51.446;6.528;2023-11-19T08:01:52;12.60;99.90
27858;DHT22;16852;51.446;6.528;2023-11-19T08:03:53;12.70;99.90
27858;DHT22;16852;51.446;6.528;2023-11-19T08:05:57;12.80;99.90
27858;DHT22;16852;51.446;6.528;2023-11-19T08:07:58;12.80;99.90
27858;DHT22;16852;51.446;6.528;2023-11-19T08:09:59;13.00;99.90
27858;DHT22;16852;51.446;6.528;2023-11-19T08:12:00;13.00;99.90
27858;DHT22;16852;51.446;6.528;2023-11-19T08:14:01;13.10;99.90
27858;DHT22;16852;51.446;6.528;2023-11-19T08:16:02;13.20;99.90
27858;DHT22;16852;51.446;6.528;2023-11-19T08:18:02;13.10;99.90
27858;DHT22;16852;51.446;6.528;2023-11-19T08:20:03;13.00;99.90
27858;DHT22;16852;51.446;6.528;2023-11-19T08:22:05;13.00;99.90
27858;DHT22;16852;51.446;6.528;2023-11-19T08:24:06;13.00;99.90
27858;DHT22;16852;51.446;6.528;2023-11-19T08:26:06;13.00;99.90
27858;DHT22;16852;51.446;6.528;2023-11-19T08:28:07;13.10;99.90
27858;DHT22;16852;51.446;6.528;2023-11-19T08:30:08;13.20;99.90
27858;DHT22;16852;51.446;6.528;2023-11-19T08:32:09;13.30;99.90
27858;DHT22;16852;51.446;6.528;2023-11-19T08:34:11;13.40;99.90
27858;DHT22;16852;51.446;6.528;2023-11-19T08:36:16;13.50;99.90
27858;DHT22;16852;51.446;6.528;2023-11-19T08:38:17;13.60;99.90
27858;DHT22;16852;51.446;6.528;2023-11-19T08:40:17;13.70;99.90
27858;DHT22;16852;51.446;6.528;2023-11-19T08:42:18;13.70;99.90
27858;DHT22;16852;51.446;6.528;2023-11-19T08:44:19;13.90;99.90
27858;DHT22;16852;51.446;6.528;2023-11-19T08:46:20;13.90;99.90
27858;DHT22;16852;51.446;6.528;2023-11-19T08:48:20;14.00;99.90
27858;DHT22;16852;51.446;6.528;2023-11-19T08:50:21;14.10;99.90
27858;DHT22;16852;51.446;6.528;2023-11-19T08:52:22;14.20;99.90
27858;DHT22;16852;51.446;6.528;2023-11-19T08:54:23;14.20;99.90
27858;DHT22;16852;51.446;6.528;2023-11-19T08:56:23;14.20;99.90
27858;DHT22;16852;51.446;6.528;2023-11-19T08:58:24;14.20;99.90
27858;DHT22;16852;51.446;6.528;2023-11-19T09:00:24;14.20;99.90
27858;DHT22;16852;51.446;6.528;2023-11-19T09:02:25;14.20;99.90
27858;DHT22;16852;51.446;6.528;2023-11-19T09:04:26;14.20;99.90
27858;DHT22;16852;51.446;6.528;2023-11-19T09:06:26;14.20;99.90
27858;DHT22;16852;51.446;6.528;2023-11-19T09:08:27;14.20;99.90
27858;DHT22;16852;51.446;6.528;2023-11-19T09:10:28;14.20;99.90
27858;DHT22;16852;51.446;6.528;2023-11-19T09:12:29;14.20;99.90
27858;DHT22;16852;51.446;6.528;2023-11-19T09:14:31;14.20;99.90
27858;DHT22;16852;51.446;6.528;2023-11-19T09:16:32;14.10;99.90
27858;DHT22;16852;51.446;6.528;2023-11-19T09:18:33;14.10;99.90
27858;DHT22;16852;51.446;6.528;2023-11-19T09:20:34;14.10;99.90
27858;DHT22;16852;51.446;6.528;2023-11-19T09:22:38;14.10;99.90
27858;DHT22;16852;51.446;6.528;2023-11-19T09:24:39;14.10;99.90
27858;DHT22;16852;51.446;6.528;2023-11-19T09:26:39;14.00;99.90
27858;DHT22;16852;51.446;6.528;2023-11-19T09:28:42;14.00;99.90
27858;DHT22;16852;51.446;6.528;2023-11-19T09:30:42;14.00;99.90
27858;DHT22;16852;51.446;6.528;2023-11-19T09:32:43;14.00;99.90
27858;DHT22;16852;51.446;6.528;2023-11-19T09:34:44;14.00;99.90
27858;DHT22;16852;51.446;6.528;2023-11-19T09:36:45;14.10;99.90
27858;DHT22;16852;51.446;6.528;2023-11-19T09:38:46;14.00;99.90
27858;DHT22;16852;51.446;6.528;2023-11-19T09:40:46;14.00;99.90
27858;DHT22;16852;51.446;6.528;2023-11-19T09:42:48;14.00;99.90
27858;DHT22;16852;51.446;6.528;2023-11-19T09:44:49;13.90;99.90
27858;DHT22;16852;51.446;6.528;2023-11-19T09:46:50;13.90;99.90
27858;DHT22;16852;51.446;6.528;2023-11-19T09:48:53;13.90;99.90
27858;DHT22;16852;51.446;6.528;2023-11-19T09:50:56;13.90;99.90
27858;DHT22;16852;51.446;6.528;2023-11-19T09:52:58;13.90;99.90
27858;DHT22;16852;51.446;6.528;2023-11-19T09:54:59;13.90;99.90
27858;DHT22;16852;51.446;6.528;2023-11-19T09:57:01;13.90;99.90
27858;DHT22;16852;51.446;6.528;2023-11-19T09:59:05;13.90;99.90
27858;DHT22;16852;51.446;6.528;2023-11-19T10:01:06;13.80;99.90
27858;DHT22;16852;51.446;6.528;2023-11-19T10:03:11;13.80;99.90
27858;DHT22;16852;51.446;6.528;2023-11-19T10:05:14;13.80;99.90
27858;DHT22;16852;51.446;6.528;2023-11-19T10:07:15;13.80;99.90
27858;DHT22;16852;51.446;6.528;2023-11-19T10:09:15;13.70;99.90
27858;DHT22;16852;51.446;6.528;2023-11-19T10:11:17;13.70;99.90
27858;DHT22;16852;51.446;6.528;2023-11-19T10:13:18;13.70;99.90
27858;DHT22;16852;51.446;6.528;2023-11-19T10:15:23;13.70;99.90
27858;DHT22;16852;51.446;6.528;2023-11-19T10:17:28;13.70;99.90
27858;DHT22;16852;51.446;6.528;2023-11-19T10:19:29;13.70;99.90
27858;DHT22;16852;51.446;6.528;2023-11-19T10:21:33;13.60;99.90
27858;DHT22;16852;51.446;6.528;2023-11-19T10:23:55;13.70;99.90
27858;DHT22;16852;51.446;6.528;2023-11-19T10:26:03;13.70;99.90
27858;DHT22;16852;51.446;6.528;2023-11-19T10:28:07;13.70;99.90
27858;DHT22;16852;51.446;6.528;2023-11-19T10:30:08;13.80;99.90
27858;DHT22;16852;51.446;6.528;2023-11-19T10:32:12;13.80;99.90
27858;DHT22;16852;51.446;6.528;2023-11-19T10:34:25;13.80;99.90
27858;DHT22;16852;51.446;6.528;2023-11-19T10:36:38;13.80;99.90
27858;DHT22;16852;51.446;6.528;2023-11-19T10:38:54;13.90;99.90
27858;DHT22;16852;51.446;6.528;2023-11-19T10:40:55;13.90;99.90
27858;DHT22;16852;51.446;6.528;2023-11-19T10:43:03;14.00;99.90
27858;DHT22;16852;51.446;6.528;2023-11-19T10:45:04;14.10;99.90
27858;DHT22;16852;51.446;6.528;2023-11-19T10:47:06;14.10;99.90
27858;DHT22;16852;51.446;6.528;2023-11-19T10:49:09;14.20;99.90
27858;DHT22;16852;51.446;6.528;2023-11-19T10:51:10;14.20;99.90
27858;DHT22;16852;51.446;6.528;2023-11-19T10:53:12;14.10;99.90
27858;DHT22;16852;51.446;6.528;2023-11-19T10:55:18;14.20;99.90
27858;DHT22;16852;51.446;6.528;2023-11-19T10:57:21;14.10;99.90
27858;DHT22;16852;51.446;6.528;2023-11-19T10:59:22;14.20;99.90
27858;DHT22;16852;51.446;6.528;2023-11-19T11:01:24;14.20;99.90
27858;DHT22;16852;51.446;6.528;2023-11-19T11:03:30;14.30;99.90
27858;DHT22;16852;51.446;6.528;2023-11-19T11:05:32;14.40;99.90
27858;DHT22;16852;51.446;6.528;2023-11-19T11:07:35;14.50;99.90
27858;DHT22;16852;51.446;6.528;2023-11-19T11:09:35;14.50;99.90
27858;DHT22;16852;51.446;6.528;2023-11-19T11:11:36;14.50;99.90
27858;DHT22;16852;51.446;6.528;2023-11-19T11:13:42;14.60;99.90
27858;DHT22;16852;51.446;6.528;2023-11-19T11:15:43;14.60;99.90
27858;DHT22;16852;51.446;6.528;2023-11-19T11:17:47;14.60;99.90
27858;DHT22;16852;51.446;6.528;2023-11-19T11:19:48;14.60;99.90
27858;DHT22;16852;51.446;6.528;2023-11-19T11:21:51;14.60;99.90
27858;DHT22;16852;51.446;6.528;2023-11-19T11:33:40;14.60;99.90
27858;DHT22;16852;51.446;6.528;2023-11-19T11:38:06;14.60;99.90
27858;DHT22;16852;51.446;6.528;2023-11-19T11:40:08;14.60;99.90
27858;DHT22;16852;51.446;6.528;2023-11-19T11:44:17;14.60;99.90
27858;DHT22;16852;51.446;6.528;2023-11-19T11:48:48;14.60;99.90
27858;DHT22;16852;51.446;6.528;2023-11-19T11:50:56;14.60;99.90
27858;DHT22;16852;51.446;6.528;2023-11-19T11:55:06;14.60;99.90
27858;DHT22;16852;51.446;6.528;2023-11-19T11:57:12;14.60;99.90
27858;DHT22;16852;51.446;6.528;2023-11-19T11:59:20;14.50;99.90
27858;DHT22;16852;51.446;6.528;2023-11-19T12:01:20;14.50;99.90
27858;DHT22;16852;51.446;6.528;2023-11-19T12:03:22;14.50;99.90
27858;DHT22;16852;51.446;6.528;2023-11-19T12:05:23;14.50;99.90
27858;DHT22;16852;51.446;6.528;2023-11-19T12:07:24;14.40;99.90
27858;DHT22;16852;51.446;6.528;2023-11-19T12:09:26;14.40;99.90
27858;DHT22;16852;51.446;6.528;2023-11-19T12:11:26;14.40;99.90
27858;DHT22;16852;51.446;6.528;2023-11-19T12:14:03;14.40;99.90
27858;DHT22;16852;51.446;6.528;2023-11-19T12:18:05;14.40;99.90
27858;DHT22;16852;51.446;6.528;2023-11-19T12:20:06;14.30;99.90
27858;DHT22;16852;51.446;6.528;2023-11-19T12:22:13;14.30;99.90
27858;DHT22;16852;51.446;6.528;2023-11-19T12:24:14;14.30;99.90
27858;DHT22;16852;51.446;6.528;2023-11-19T12:26:42;14.30;99.90
27858;DHT22;16852;51.446;6.528;2023-11-19T12:28:57;14.20;99.90
27858;DHT22;16852;51.446;6.528;2023-11-19T12:31:08;14.20;99.90
27858;DHT22;16852;51.446;6.528;2023-11-19T12:33:10;14.20;99.90
27858;DHT22;16852;51.446;6.528;2023-11-19T12:35:12;14.10;99.90
27858;DHT22;16852;51.446;6.528;2023-11-19T12:37:13;14.00;99.90
27858;DHT22;16852;51.446;6.528;2023-11-19T12:39:14;14.00;99.90
27858;DHT22;16852;51.446;6.528;2023-11-19T12:41:15;13.90;99.90
27858;DHT22;16852;51.446;6.528;2023-11-19T12:43:23;13.90;99.90
27858;DHT22;16852;51.446;6.528;2023-11-19T12:45:24;13.90;99.90
27858;DHT22;16852;51.446;6.528;2023-11-19T12:47:25;13.80;99.90
27858;DHT22;16852;51.446;6.528;2023-11-19T12:49:25;13.80;99.90
27858;DHT22;16852;51.446;6.528;2023-11-19T12:51:32;13.80;99.90
27858;DHT22;16852;51.446;6.528;2023-11-19T12:53:50;13.80;99.90
27858;DHT22;16852;51.446;6.528;2023-11-19T12:55:54;13.70;99.90
27858;DHT22;16852;51.446;6.528;2023-11-19T12:57:58;13.70;99.90
27858;DHT22;16852;51.446;6.528;2023-11-19T12:59:59;13.70;99.90
27858;DHT22;16852;51.446;6.528;2023-11-19T13:02:00;13.80;99.90
27858;DHT22;16852;51.446;6.528;2023-11-19T13:04:15;13.70;99.90
27858;DHT22;16852;51.446;6.528;2023-11-19T13:06:16;13.80;99.90
27858;DHT22;16852;51.446;6.528;2023-11-19T13:08:17;13.80;99.90
27858;DHT22;16852;51.446;6.528;2023-11-19T13:10:18;13.70;99.90
27858;DHT22;16852;51.446;6.528;2023-11-19T13:12:18;13.70;99.90